sensor_id;sensor_type;location;lat;lon;timestamp;pressure;altitude;pressure_sealevel;temperature;humidity
4167;BME280;2097;51.104;7.150;2022-12-18T00:01:51;99967.69;;;-5.05;100.00
4167;BME280;2097;51.104;7.150;2022-12-18T00:04:27;99965.91;;;-5.09;100.00
4167;BME280;2097;51.104;7.150;2022-12-18T00:06:54;99967.56;;;-5.11;100.00
4167;BME280;2097;51.104;7.150;2022-12-18T00:09:21;99969.97;;;-5.17;100.00
4167;BME280;2097;51.104;7.150;2022-12-18T00:11:47;99976.72;;;-5.16;100.00
4167;BME280;2097;51.104;7.150;2022-12-18T00:14:14;99969.28;;;-5.10;100.00
4167;BME280;2097;51.104;7.150;2022-12-18T00:16:43;99941.78;;;-5.32;100.00
4167;BME280;2097;51.104;7.150;2022-12-18T00:19:10;99987.81;;;-5.11;100.00
4167;BME280;2097;51.104;7.150;2022-12-18T00:21:40;99987.75;;;-5.14;100.00
4167;BME280;2097;51.104;7.150;2022-12-18T00:24:07;99990.13;;;-5.20;100.00
4167;BME280;2097;51.104;7.150;2022-12-18T00:26:36;99980.81;;;-5.21;100.00
4167;BME280;2097;51.104;7.150;2022-12-18T00:29:06;99984.09;;;-5.25;100.00
4167;BME280;2097;51.104;7.150;2022-12-18T00:31:33;99979.06;;;-5.23;100.00
4167;BME280;2097;51.104;7.150;2022-12-18T00:34:00;99991.63;;;-5.26;100.00
4167;BME280;2097;51.104;7.150;2022-12-18T00:36:29;99982.47;;;-5.21;100.00
4167;BME280;2097;51.104;7.150;2022-12-18T00:38:58;99984.94;;;-5.24;100.00
4167;BME280;2097;51.104;7.150;2022-12-18T00:41:26;99939.66;;;-5.51;100.00
4167;BME280;2097;51.104;7.150;2022-12-18T00:44:13;99974.75;;;-5.27;100.00
4167;BME280;2097;51.104;7.150;2022-12-18T00:46:40;99987.66;;;-5.17;100.00
4167;BME280;2097;51.104;7.150;2022-12-18T00:49:07;99987.59;;;-5.20;100.00
4167;BME280;2097;51.104;7.150;2022-12-18T00:51:38;99982.47;;;-5.23;100.00
4167;BME280;2097;51.104;7.150;2022-12-18T00:54:07;99981.50;;;-5.26;100.00
4167;BME280;2097;51.104;7.150;2022-12-18T00:56:35;99978.16;;;-5.27;100.00
4167;BME280;2097;51.104;7.150;2022-12-18T00:59:02;99975.47;;;-5.33;100.00
4167;BME280;2097;51.104;7.150;2022-12-18T01:01:29;99981.41;;;-5.31;100.00
4167;BME280;2097;51.104;7.150;2022-12-18T01:03:57;99983.94;;;-5.31;100.00
4167;BME280;2097;51.104;7.150;2022-12-18T01:06:24;99983.06;;;-5.33;100.00
4167;BME280;2097;51.104;7.150;2022-12-18T01:08:51;99986.47;;;-5.32;100.00
4167;BME280;2097;51.104;7.150;2022-12-18T01:11:20;99989.06;;;-5.29;100.00
4167;BME280;2097;51.104;7.150;2022-12-18T01:13:47;99993.16;;;-5.34;100.00
4167;BME280;2097;51.104;7.150;2022-12-18T01:16:16;99983.81;;;-5.37;100.00
4167;BME280;2097;51.104;7.150;2022-12-18T01:18:43;99980.44;;;-5.36;100.00
4167;BME280;2097;51.104;7.150;2022-12-18T01:21:12;99931.81;;;-5.61;100.00
4167;BME280;2097;51.104;7.150;2022-12-18T01:23:39;99974.50;;;-5.38;100.00
4167;BME280;2097;51.104;7.150;2022-12-18T01:26:06;99859.00;;;-6.12;100.00
4167;BME280;2097;51.104;7.150;2022-12-18T01:28:35;99971.00;;;-5.44;100.00
4167;BME280;2097;51.104;7.150;2022-12-18T01:31:18;99965.88;;;-5.46;100.00
4167;BME280;2097;51.104;7.150;2022-12-18T01:33:48;99957.28;;;-5.54;100.00
4167;BME280;2097;51.104;7.150;2022-12-18T01:36:18;99970.88;;;-5.49;100.00
4167;BME280;2097;51.104;7.150;2022-12-18T01:38:46;99973.44;;;-5.47;100.00
4167;BME280;2097;51.104;7.150;2022-12-18T01:41:15;99981.03;;;-5.46;100.00
4167;BME280;2097;51.104;7.150;2022-12-18T01:43:50;99981.03;;;-5.47;100.00
4167;BME280;2097;51.104;7.150;2022-12-18T01:46:19;99980.19;;;-5.48;100.00
4167;BME280;2097;51.104;7.150;2022-12-18T01:48:47;99978.50;;;-5.46;100.00
4167;BME280;2097;51.104;7.150;2022-12-18T01:51:17;99983.72;;;-5.40;100.00
4167;BME280;2097;51.104;7.150;2022-12-18T01:53:45;99987.16;;;-5.38;100.00
4167;BME280;2097;51.104;7.150;2022-12-18T01:56:14;99988.78;;;-5.40;100.00
4167;BME280;2097;51.104;7.150;2022-12-18T01:58:50;99973.47;;;-5.46;100.00
4167;BME280;2097;51.104;7.150;2022-12-18T02:01:21;99967.47;;;-5.51;100.00
4167;BME280;2097;51.104;7.150;2022-12-18T02:03:49;99975.97;;;-5.47;100.00
4167;BME280;2097;51.104;7.150;2022-12-18T02:06:20;99978.59;;;-5.43;100.00
4167;BME280;2097;51.104;7.150;2022-12-18T02:08:57;99980.22;;;-5.45;100.00
4167;BME280;2097;51.104;7.150;2022-12-18T02:11:36;99992.13;;;-5.41;100.00
4167;BME280;2097;51.104;7.150;2022-12-18T02:14:16;99990.34;;;-5.45;100.00
4167;BME280;2097;51.104;7.150;2022-12-18T02:16:46;99986.78;;;-5.53;100.00
4167;BME280;2097;51.104;7.150;2022-12-18T02:19:34;99995.19;;;-5.54;100.00
4167;BME280;2097;51.104;7.150;2022-12-18T02:22:12;99993.56;;;-5.52;100.00
4167;BME280;2097;51.104;7.150;2022-12-18T02:24:54;99987.63;;;-5.54;100.00
4167;BME280;2097;51.104;7.150;2022-12-18T02:27:27;99976.63;;;-5.54;100.00
4167;BME280;2097;51.104;7.150;2022-12-18T02:29:57;99974.16;;;-5.53;100.00
4167;BME280;2097;51.104;7.150;2022-12-18T02:32:28;99811.91;;;-6.44;100.00
4167;BME280;2097;51.104;7.150;2022-12-18T02:34:58;99981.03;;;-5.46;100.00
4167;BME280;2097;51.104;7.150;2022-12-18T02:37:27;99962.41;;;-5.51;100.00
4167;BME280;2097;51.104;7.150;2022-12-18T02:39:55;99971.06;;;-5.41;100.00
4167;BME280;2097;51.104;7.150;2022-12-18T02:42:24;99964.22;;;-5.45;100.00
4167;BME280;2097;51.104;7.150;2022-12-18T02:44:52;99959.97;;;-5.48;100.00
4167;BME280;2097;51.104;7.150;2022-12-18T02:47:24;99795.78;;;-6.49;100.00
4167;BME280;2097;51.104;7.150;2022-12-18T02:49:59;99928.50;;;-5.59;100.00
4167;BME280;2097;51.104;7.150;2022-12-18T02:52:32;99942.13;;;-5.52;100.00
4167;BME280;2097;51.104;7.150;2022-12-18T02:55:12;99947.31;;;-5.48;100.00
4167;BME280;2097;51.104;7.150;2022-12-18T02:57:45;99826.22;;;-6.11;100.00
4167;BME280;2097;51.104;7.150;2022-12-18T03:00:19;99952.53;;;-5.40;100.00
4167;BME280;2097;51.104;7.150;2022-12-18T03:02:50;99954.13;;;-5.44;100.00
4167;BME280;2097;51.104;7.150;2022-12-18T03:05:22;99865.41;;;-5.92;100.00
4167;BME280;2097;51.104;7.150;2022-12-18T03:07:55;99937.22;;;-5.46;100.00
4167;BME280;2097;51.104;7.150;2022-12-18T03:10:29;99953.50;;;-5.35;100.00
4167;BME280;2097;51.104;7.150;2022-12-18T03:13:02;99954.34;;;-5.35;100.00
4167;BME280;2097;51.104;7.150;2022-12-18T03:15:35;99957.78;;;-5.33;100.00
4167;BME280;2097;51.104;7.150;2022-12-18T03:18:07;99950.34;;;-5.27;100.00
4167;BME280;2097;51.104;7.150;2022-12-18T03:20:37;99876.19;;;-5.63;100.00
4167;BME280;2097;51.104;7.150;2022-12-18T03:23:09;99955.53;;;-5.21;100.00
4167;BME280;2097;51.104;7.150;2022-12-18T03:25:40;99948.75;;;-5.22;100.00
4167;BME280;2097;51.104;7.150;2022-12-18T03:28:10;99938.66;;;-5.22;100.00
4167;BME280;2097;51.104;7.150;2022-12-18T03:30:42;99930.13;;;-5.25;100.00
4167;BME280;2097;51.104;7.150;2022-12-18T03:33:14;99931.75;;;-5.27;100.00
4167;BME280;2097;51.104;7.150;2022-12-18T03:35:45;99931.81;;;-5.26;100.00
4167;BME280;2097;51.104;7.150;2022-12-18T03:38:12;99928.47;;;-5.25;100.00
4167;BME280;2097;51.104;7.150;2022-12-18T03:40:56;99927.56;;;-5.28;100.00
4167;BME280;2097;51.104;7.150;2022-12-18T03:43:34;99920.00;;;-5.25;100.00
4167;BME280;2097;51.104;7.150;2022-12-18T03:46:07;99921.09;;;-5.14;100.00
4167;BME280;2097;51.104;7.150;2022-12-18T03:48:38;99921.38;;;-5.02;100.00
4167;BME280;2097;51.104;7.150;2022-12-18T03:51:10;99914.50;;;-5.08;100.00
4167;BME280;2097;51.104;7.150;2022-12-18T03:53:42;99921.41;;;-5.01;100.00
4167;BME280;2097;51.104;7.150;2022-12-18T03:56:13;99920.50;;;-5.03;100.00
4167;BME280;2097;51.104;7.150;2022-12-18T03:58:43;99918.81;;;-5.04;100.00
4167;BME280;2097;51.104;7.150;2022-12-18T04:01:13;99912.03;;;-5.05;100.00
4167;BME280;2097;51.104;7.150;2022-12-18T04:03:42;99916.13;;;-5.11;100.00
4167;BME280;2097;51.104;7.150;2022-12-18T04:06:10;99913.66;;;-5.07;100.00
4167;BME280;2097;51.104;7.150;2022-12-18T04:08:39;99911.31;;;-4.99;100.00
4167;BME280;2097;51.104;7.150;2022-12-18T04:11:06;99892.50;;;-5.12;100.00
4167;BME280;2097;51.104;7.150;2022-12-18T04:13:35;99900.13;;;-5.09;100.00
4167;BME280;2097;51.104;7.150;2022-12-18T04:16:03;99907.78;;;-5.07;100.00
4167;BME280;2097;51.104;7.150;2022-12-18T04:18:31;99902.72;;;-5.06;100.00
4167;BME280;2097;51.104;7.150;2022-12-18T04:20:58;99907.03;;;-5.02;100.00
4167;BME280;2097;51.104;7.150;2022-12-18T04:23:25;99904.50;;;-5.02;100.00
4167;BME280;2097;51.104;7.150;2022-12-18T04:25:52;99916.25;;;-5.05;100.00
4167;BME280;2097;51.104;7.150;2022-12-18T04:28:18;99915.28;;;-5.12;100.00
4167;BME280;2097;51.104;7.150;2022-12-18T04:30:45;99911.09;;;-5.10;100.00
4167;BME280;2097;51.104;7.150;2022-12-18T04:33:15;99918.69;;;-5.10;100.00
4167;BME280;2097;51.104;7.150;2022-12-18T04:35:46;99910.25;;;-5.09;100.00
4167;BME280;2097;51.104;7.150;2022-12-18T04:38:13;99908.72;;;-5.02;100.00
4167;BME280;2097;51.104;7.150;2022-12-18T04:40:40;99907.97;;;-4.98;100.00
4167;BME280;2097;51.104;7.150;2022-12-18T04:43:07;99903.00;;;-4.94;100.00
4167;BME280;2097;51.104;7.150;2022-12-18T04:45:34;99899.63;;;-4.94;100.00
4167;BME280;2097;51.104;7.150;2022-12-18T04:48:02;99904.63;;;-4.96;100.00
4167;BME280;2097;51.104;7.150;2022-12-18T04:50:29;99899.59;;;-4.96;100.00
4167;BME280;2097;51.104;7.150;2022-12-18T04:52:58;99903.75;;;-4.99;100.00
4167;BME280;2097;51.104;7.150;2022-12-18T04:55:25;99878.09;;;-5.14;100.00
4167;BME280;2097;51.104;7.150;2022-12-18T04:57:52;99895.34;;;-4.97;100.00
4167;BME280;2097;51.104;7.150;2022-12-18T05:00:19;99890.34;;;-4.94;100.00
4167;BME280;2097;51.104;7.150;2022-12-18T05:02:46;99893.69;;;-4.95;100.00
4167;BME280;2097;51.104;7.150;2022-12-18T05:05:13;99887.81;;;-4.95;100.00
4167;BME280;2097;51.104;7.150;2022-12-18T05:07:40;99885.28;;;-4.94;100.00
4167;BME280;2097;51.104;7.150;2022-12-18T05:10:09;99895.47;;;-4.91;100.00
4167;BME280;2097;51.104;7.150;2022-12-18T05:12:36;99882.88;;;-4.88;100.00
4167;BME280;2097;51.104;7.150;2022-12-18T05:15:24;99628.78;;;-6.32;100.00
4167;BME280;2097;51.104;7.150;2022-12-18T05:17:51;99878.78;;;-4.83;100.00
4167;BME280;2097;51.104;7.150;2022-12-18T05:20:18;99884.69;;;-4.82;100.00
4167;BME280;2097;51.104;7.150;2022-12-18T05:22:45;99883.78;;;-4.86;100.00
4167;BME280;2097;51.104;7.150;2022-12-18T05:25:13;99877.75;;;-4.91;100.00
4167;BME280;2097;51.104;7.150;2022-12-18T05:27:40;99883.72;;;-4.89;100.00
4167;BME280;2097;51.104;7.150;2022-12-18T05:30:08;99885.41;;;-4.88;100.00
4167;BME280;2097;51.104;7.150;2022-12-18T05:32:35;99882.06;;;-4.87;100.00
4167;BME280;2097;51.104;7.150;2022-12-18T05:35:03;99884.59;;;-4.87;100.00
4167;BME280;2097;51.104;7.150;2022-12-18T05:37:30;99887.91;;;-4.89;100.00
4167;BME280;2097;51.104;7.150;2022-12-18T05:39:56;99880.28;;;-4.91;100.00
4167;BME280;2097;51.104;7.150;2022-12-18T05:42:25;99881.19;;;-4.89;100.00
4167;BME280;2097;51.104;7.150;2022-12-18T05:44:52;99892.19;;;-4.87;100.00
4167;BME280;2097;51.104;7.150;2022-12-18T05:47:19;99888.91;;;-4.83;100.00
4167;BME280;2097;51.104;7.150;2022-12-18T05:49:46;99885.47;;;-4.85;100.00
4167;BME280;2097;51.104;7.150;2022-12-18T05:52:12;99880.28;;;-4.91;100.00
4167;BME280;2097;51.104;7.150;2022-12-18T05:54:39;99895.59;;;-4.85;100.00
4167;BME280;2097;51.104;7.150;2022-12-18T05:57:06;99894.75;;;-4.85;100.00
4167;BME280;2097;51.104;7.150;2022-12-18T05:59:34;99899.78;;;-4.85;100.00
4167;BME280;2097;51.104;7.150;2022-12-18T06:02:01;99912.44;;;-4.85;100.00
4167;BME280;2097;51.104;7.150;2022-12-18T06:04:28;99914.22;;;-4.83;100.00
4167;BME280;2097;51.104;7.150;2022-12-18T06:06:58;99924.28;;;-4.84;100.00
4167;BME280;2097;51.104;7.150;2022-12-18T06:09:25;99920.03;;;-4.85;100.00
4167;BME280;2097;51.104;7.150;2022-12-18T06:11:52;99921.69;;;-4.87;100.00
4167;BME280;2097;51.104;7.150;2022-12-18T06:14:19;99918.19;;;-4.94;100.00
4167;BME280;2097;51.104;7.150;2022-12-18T06:16:47;99928.50;;;-4.85;100.00
4167;BME280;2097;51.104;7.150;2022-12-18T06:19:15;99924.22;;;-4.87;100.00
4167;BME280;2097;51.104;7.150;2022-12-18T06:21:43;99933.38;;;-4.94;100.00
4167;BME280;2097;51.104;7.150;2022-12-18T06:24:10;99950.31;;;-4.90;100.00
4167;BME280;2097;51.104;7.150;2022-12-18T06:26:37;99951.06;;;-4.94;100.00
4167;BME280;2097;51.104;7.150;2022-12-18T06:29:05;99904.06;;;-5.23;100.00
4167;BME280;2097;51.104;7.150;2022-12-18T06:31:32;99965.28;;;-4.99;100.00
4167;BME280;2097;51.104;7.150;2022-12-18T06:34:02;99966.13;;;-5.00;100.00
4167;BME280;2097;51.104;7.150;2022-12-18T06:36:29;99960.97;;;-5.03;100.00
4167;BME280;2097;51.104;7.150;2022-12-18T06:38:56;99953.38;;;-5.04;100.00
4167;BME280;2097;51.104;7.150;2022-12-18T06:43:52;99941.75;;;-4.96;100.00
4167;BME280;2097;51.104;7.150;2022-12-18T06:46:19;99938.41;;;-4.95;100.00
4167;BME280;2097;51.104;7.150;2022-12-18T06:48:47;99945.13;;;-4.96;100.00
4167;BME280;2097;51.104;7.150;2022-12-18T06:51:18;99943.47;;;-4.94;100.00
4167;BME280;2097;51.104;7.150;2022-12-18T06:53:45;99930.84;;;-4.94;100.00
4167;BME280;2097;51.104;7.150;2022-12-18T06:56:12;99924.06;;;-4.95;100.00
4167;BME280;2097;51.104;7.150;2022-12-18T06:58:39;99917.34;;;-4.93;100.00
4167;BME280;2097;51.104;7.150;2022-12-18T07:01:09;99896.09;;;-5.01;100.00
4167;BME280;2097;51.104;7.150;2022-12-18T07:03:36;99909.91;;;-4.85;100.00
4167;BME280;2097;51.104;7.150;2022-12-18T07:06:03;99908.19;;;-4.88;100.00
4167;BME280;2097;51.104;7.150;2022-12-18T07:08:33;99908.16;;;-4.89;100.00
4167;BME280;2097;51.104;7.150;2022-12-18T07:11:03;99911.47;;;-4.92;100.00
4167;BME280;2097;51.104;7.150;2022-12-18T07:13:30;99912.31;;;-4.93;100.00
4167;BME280;2097;51.104;7.150;2022-12-18T07:16:06;99919.81;;;-4.96;100.00
4167;BME280;2097;51.104;7.150;2022-12-18T07:18:33;99917.22;;;-4.99;100.00
4167;BME280;2097;51.104;7.150;2022-12-18T07:21:03;99919.69;;;-5.02;100.00
4167;BME280;2097;51.104;7.150;2022-12-18T07:23:31;99918.88;;;-5.01;100.00
4167;BME280;2097;51.104;7.150;2022-12-18T07:26:01;99914.75;;;-4.97;100.00
4167;BME280;2097;51.104;7.150;2022-12-18T07:28:28;99929.88;;;-4.99;100.00
4167;BME280;2097;51.104;7.150;2022-12-18T07:30:55;99926.59;;;-4.95;100.00
4167;BME280;2097;51.104;7.150;2022-12-18T07:33:22;99918.19;;;-4.94;100.00
4167;BME280;2097;51.104;7.150;2022-12-18T07:35:49;99920.72;;;-4.94;100.00
4167;BME280;2097;51.104;7.150;2022-12-18T07:38:15;99917.44;;;-4.90;100.00
4167;BME280;2097;51.104;7.150;2022-12-18T07:40:45;99918.31;;;-4.88;100.00
4167;BME280;2097;51.104;7.150;2022-12-18T07:43:13;99903.22;;;-4.83;100.00
4167;BME280;2097;51.104;7.150;2022-12-18T07:45:42;99897.38;;;-4.81;100.00
4167;BME280;2097;51.104;7.150;2022-12-18T07:48:10;99895.81;;;-4.76;100.00
4167;BME280;2097;51.104;7.150;2022-12-18T07:50:51;99896.69;;;-4.72;100.00
4167;BME280;2097;51.104;7.150;2022-12-18T07:53:19;99892.53;;;-4.69;100.00
4167;BME280;2097;51.104;7.150;2022-12-18T07:55:47;99886.66;;;-4.68;100.00
4167;BME280;2097;51.104;7.150;2022-12-18T07:58:14;99891.00;;;-4.62;100.00
4167;BME280;2097;51.104;7.150;2022-12-18T08:00:41;99893.66;;;-4.56;100.00
4167;BME280;2097;51.104;7.150;2022-12-18T08:03:08;99888.63;;;-4.53;100.00
4167;BME280;2097;51.104;7.150;2022-12-18T08:05:34;99890.44;;;-4.48;100.00
4167;BME280;2097;51.104;7.150;2022-12-18T08:08:01;99884.56;;;-4.46;100.00
4167;BME280;2097;51.104;7.150;2022-12-18T08:10:28;99889.75;;;-4.40;100.00
4167;BME280;2097;51.104;7.150;2022-12-18T08:12:56;99824.13;;;-4.72;100.00
4167;BME280;2097;51.104;7.150;2022-12-18T08:15:23;99889.88;;;-4.32;100.00
4167;BME280;2097;51.104;7.150;2022-12-18T08:17:51;99885.81;;;-4.24;100.00
4167;BME280;2097;51.104;7.150;2022-12-18T08:20:17;99876.66;;;-4.16;100.00
4167;BME280;2097;51.104;7.150;2022-12-18T08:22:44;99882.75;;;-4.07;100.00
4167;BME280;2097;51.104;7.150;2022-12-18T08:25:11;99881.22;;;-3.97;100.00
4167;BME280;2097;51.104;7.150;2022-12-18T08:27:38;99884.78;;;-3.86;100.00
4167;BME280;2097;51.104;7.150;2022-12-18T08:30:07;99875.63;;;-3.78;100.00
4167;BME280;2097;51.104;7.150;2022-12-18T08:32:34;99864.72;;;-3.74;100.00
4167;BME280;2097;51.104;7.150;2022-12-18T08:35:01;99844.50;;;-3.70;100.00
4167;BME280;2097;51.104;7.150;2022-12-18T08:37:28;99839.56;;;-3.61;100.00
4167;BME280;2097;51.104;7.150;2022-12-18T08:39:55;99845.63;;;-3.51;100.00
4167;BME280;2097;51.104;7.150;2022-12-18T08:42:22;99831.41;;;-3.40;100.00
4167;BME280;2097;51.104;7.150;2022-12-18T08:45:09;99823.88;;;-3.35;100.00
4167;BME280;2097;51.104;7.150;2022-12-18T08:47:35;99702.13;;;-4.00;100.00
4167;BME280;2097;51.104;7.150;2022-12-18T08:50:02;99829.19;;;-3.17;100.00
4167;BME280;2097;51.104;7.150;2022-12-18T08:52:31;99768.66;;;-3.55;100.00
4167;BME280;2097;51.104;7.150;2022-12-18T08:54:58;99831.88;;;-3.03;100.00
4167;BME280;2097;51.104;7.150;2022-12-18T08:57:25;99845.53;;;-2.97;100.00
4167;BME280;2097;51.104;7.150;2022-12-18T08:59:52;99854.97;;;-2.85;100.00
4167;BME280;2097;51.104;7.150;2022-12-18T09:02:20;99842.41;;;-2.76;100.00
4167;BME280;2097;51.104;7.150;2022-12-18T09:04:47;99844.97;;;-2.72;100.00
4167;BME280;2097;51.104;7.150;2022-12-18T09:07:14;99849.34;;;-2.62;100.00
4167;BME280;2097;51.104;7.150;2022-12-18T09:09:41;99857.03;;;-2.56;100.00
4167;BME280;2097;51.104;7.150;2022-12-18T09:12:08;99857.94;;;-2.49;99.92
4167;BME280;2097;51.104;7.150;2022-12-18T09:14:35;99862.25;;;-2.42;99.08
4167;BME280;2097;51.104;7.150;2022-12-18T09:17:02;99862.25;;;-2.41;99.15
4167;BME280;2097;51.104;7.150;2022-12-18T09:19:30;99844.47;;;-2.41;99.23
4167;BME280;2097;51.104;7.150;2022-12-18T09:21:57;99838.53;;;-2.40;99.01
4167;BME280;2097;51.104;7.150;2022-12-18T09:24:23;99825.03;;;-2.36;98.78
4167;BME280;2097;51.104;7.150;2022-12-18T09:26:53;99831.00;;;-2.34;98.98
4167;BME280;2097;51.104;7.150;2022-12-18T09:29:20;99844.53;;;-2.33;98.67
4167;BME280;2097;51.104;7.150;2022-12-18T09:31:47;99820.84;;;-2.29;98.46
4167;BME280;2097;51.104;7.150;2022-12-18T09:34:14;99820.09;;;-2.24;98.61
4167;BME280;2097;51.104;7.150;2022-12-18T09:36:43;99803.09;;;-2.28;98.11
4167;BME280;2097;51.104;7.150;2022-12-18T09:39:10;99822.78;;;-2.08;98.56
4167;BME280;2097;51.104;7.150;2022-12-18T09:41:41;99788.66;;;-2.30;98.42
4167;BME280;2097;51.104;7.150;2022-12-18T09:44:15;99814.38;;;-1.95;97.66
4167;BME280;2097;51.104;7.150;2022-12-18T09:46:47;99822.94;;;-1.87;98.06
4167;BME280;2097;51.104;7.150;2022-12-18T09:49:16;99822.13;;;-1.83;97.66
4167;BME280;2097;51.104;7.150;2022-12-18T09:51:48;99831.50;;;-1.76;97.61
4167;BME280;2097;51.104;7.150;2022-12-18T09:54:21;99830.69;;;-1.67;97.21
4167;BME280;2097;51.104;7.150;2022-12-18T09:56:48;99819.72;;;-1.62;97.23
4167;BME280;2097;51.104;7.150;2022-12-18T09:59:22;99820.63;;;-1.55;97.06
4167;BME280;2097;51.104;7.150;2022-12-18T10:01:50;99829.16;;;-1.47;96.59
4167;BME280;2097;51.104;7.150;2022-12-18T10:04:16;99822.41;;;-1.41;96.59
4167;BME280;2097;51.104;7.150;2022-12-18T10:06:49;99810.53;;;-1.40;96.12
4167;BME280;2097;51.104;7.150;2022-12-18T10:09:27;99817.41;;;-1.29;96.66
4167;BME280;2097;51.104;7.150;2022-12-18T10:12:04;99808.91;;;-1.26;96.38
4167;BME280;2097;51.104;7.150;2022-12-18T10:14:41;99808.94;;;-1.23;95.72
4167;BME280;2097;51.104;7.150;2022-12-18T10:17:17;99796.22;;;-1.19;96.15
4167;BME280;2097;51.104;7.150;2022-12-18T10:19:51;99792.88;;;-1.13;95.63
4167;BME280;2097;51.104;7.150;2022-12-18T10:22:28;99785.22;;;-1.08;96.02
4167;BME280;2097;51.104;7.150;2022-12-18T10:25:03;99780.16;;;-1.02;95.27
4167;BME280;2097;51.104;7.150;2022-12-18T10:27:32;99785.28;;;-0.96;95.41
4167;BME280;2097;51.104;7.150;2022-12-18T10:30:00;99788.69;;;-0.91;95.55
4167;BME280;2097;51.104;7.150;2022-12-18T10:32:29;99781.94;;;-0.86;95.47
4167;BME280;2097;51.104;7.150;2022-12-18T10:34:58;99762.38;;;-0.85;94.78
4167;BME280;2097;51.104;7.150;2022-12-18T10:37:28;99767.53;;;-0.78;95.13
4167;BME280;2097;51.104;7.150;2022-12-18T10:40:11;99776.03;;;-0.65;94.56
4167;BME280;2097;51.104;7.150;2022-12-18T10:42:38;99773.50;;;-0.58;94.59
4167;BME280;2097;51.104;7.150;2022-12-18T10:45:10;99762.47;;;-0.58;94.37
4167;BME280;2097;51.104;7.150;2022-12-18T10:47:42;99752.25;;;-0.49;94.31
4167;BME280;2097;51.104;7.150;2022-12-18T10:50:19;99765.03;;;-0.45;94.28
4167;BME280;2097;51.104;7.150;2022-12-18T10:52:56;99762.47;;;-0.40;93.79
4167;BME280;2097;51.104;7.150;2022-12-18T10:55:24;99767.56;;;-0.36;92.93
4167;BME280;2097;51.104;7.150;2022-12-18T10:58:13;99765.03;;;-0.33;93.21
4167;BME280;2097;51.104;7.150;2022-12-18T11:00:42;99751.44;;;-0.29;92.62
4167;BME280;2097;51.104;7.150;2022-12-18T11:03:30;99757.41;;;-0.25;93.08
4167;BME280;2097;51.104;7.150;2022-12-18T11:06:09;99760.78;;;-0.22;92.54
4167;BME280;2097;51.104;7.150;2022-12-18T11:08:38;99756.56;;;-0.17;93.01
4167;BME280;2097;51.104;7.150;2022-12-18T11:11:14;99746.34;;;-0.11;92.78
4167;BME280;2097;51.104;7.150;2022-12-18T11:13:54;99744.66;;;-0.03;92.12
4167;BME280;2097;51.104;7.150;2022-12-18T11:16:23;99741.22;;;0.04;92.21
4167;BME280;2097;51.104;7.150;2022-12-18T11:18:50;99742.06;;;0.09;91.78
4167;BME280;2097;51.104;7.150;2022-12-18T11:21:17;99741.22;;;0.10;91.41
4167;BME280;2097;51.104;7.150;2022-12-18T11:23:49;99748.03;;;0.14;91.45
4167;BME280;2097;51.104;7.150;2022-12-18T11:26:17;99753.13;;;0.15;91.18
4167;BME280;2097;51.104;7.150;2022-12-18T11:28:46;99742.91;;;0.17;91.22
4167;BME280;2097;51.104;7.150;2022-12-18T11:31:25;99736.97;;;0.10;91.32
4167;BME280;2097;51.104;7.150;2022-12-18T11:34:02;99743.75;;;0.25;91.07
4167;BME280;2097;51.104;7.150;2022-12-18T11:36:33;99736.09;;;0.31;90.54
4167;BME280;2097;51.104;7.150;2022-12-18T11:39:09;99736.09;;;0.34;90.19
4167;BME280;2097;51.104;7.150;2022-12-18T11:41:43;99717.38;;;0.35;90.60
4167;BME280;2097;51.104;7.150;2022-12-18T11:44:36;99710.53;;;0.37;89.59
4167;BME280;2097;51.104;7.150;2022-12-18T11:47:11;99701.19;;;0.34;89.26
4167;BME280;2097;51.104;7.150;2022-12-18T11:49:41;99701.19;;;0.37;90.04
4167;BME280;2097;51.104;7.150;2022-12-18T11:52:17;99586.56;;;-0.30;89.74
4167;BME280;2097;51.104;7.150;2022-12-18T11:54:53;99692.72;;;0.34;88.59
4167;BME280;2097;51.104;7.150;2022-12-18T11:57:31;99681.63;;;0.30;88.36
4167;BME280;2097;51.104;7.150;2022-12-18T12:00:03;99685.91;;;0.27;87.51
4167;BME280;2097;51.104;7.150;2022-12-18T12:03:00;99684.19;;;0.24;87.60
4167;BME280;2097;51.104;7.150;2022-12-18T12:05:44;99674.88;;;0.19;87.45
4167;BME280;2097;51.104;7.150;2022-12-18T12:08:16;99686.75;;;0.24;86.59
4167;BME280;2097;51.104;7.150;2022-12-18T12:10:54;99692.72;;;0.28;86.88
4167;BME280;2097;51.104;7.150;2022-12-18T12:13:36;99685.91;;;0.28;87.38
4167;BME280;2097;51.104;7.150;2022-12-18T12:16:15;99685.88;;;0.31;86.84
4167;BME280;2097;51.104;7.150;2022-12-18T12:18:59;99690.16;;;0.31;87.25
4167;BME280;2097;51.104;7.150;2022-12-18T12:21:35;99693.56;;;0.27;87.42
4167;BME280;2097;51.104;7.150;2022-12-18T12:24:19;99690.16;;;0.31;87.27
4167;BME280;2097;51.104;7.150;2022-12-18T12:26:54;99689.31;;;0.27;87.29
4167;BME280;2097;51.104;7.150;2022-12-18T12:29:37;99693.56;;;0.24;86.17
4167;BME280;2097;51.104;7.150;2022-12-18T12:32:22;99691.00;;;0.19;86.00
4167;BME280;2097;51.104;7.150;2022-12-18T12:35:08;99697.00;;;0.14;85.40
4167;BME280;2097;51.104;7.150;2022-12-18T12:37:51;99672.34;;;0.07;85.49
4167;BME280;2097;51.104;7.150;2022-12-18T12:40:24;99656.19;;;0.08;85.62
4167;BME280;2097;51.104;7.150;2022-12-18T12:42:56;99656.19;;;0.02;84.62
4167;BME280;2097;51.104;7.150;2022-12-18T12:45:44;99660.50;;;-0.06;84.99
4167;BME280;2097;51.104;7.150;2022-12-18T12:48:19;99656.25;;;-0.10;84.82
4167;BME280;2097;51.104;7.150;2022-12-18T12:50:48;99664.75;;;-0.17;84.48
4167;BME280;2097;51.104;7.150;2022-12-18T12:53:23;99662.22;;;-0.24;84.44
4167;BME280;2097;51.104;7.150;2022-12-18T12:55:52;99669.00;;;-0.29;83.87
4167;BME280;2097;51.104;7.150;2022-12-18T12:58:28;99672.41;;;-0.30;84.81
4167;BME280;2097;51.104;7.150;2022-12-18T13:01:08;99655.41;;;-0.37;84.75
4167;BME280;2097;51.104;7.150;2022-12-18T13:03:45;99663.06;;;-0.48;84.98
4167;BME280;2097;51.104;7.150;2022-12-18T13:06:18;99671.56;;;-0.47;85.12
4167;BME280;2097;51.104;7.150;2022-12-18T13:08:54;99661.38;;;-0.52;84.79
4167;BME280;2097;51.104;7.150;2022-12-18T13:11:45;99657.97;;;-0.57;84.29
4167;BME280;2097;51.104;7.150;2022-12-18T13:14:33;99663.06;;;-0.57;84.84
4167;BME280;2097;51.104;7.150;2022-12-18T13:17:28;99660.53;;;-0.55;85.06
4167;BME280;2097;51.104;7.150;2022-12-18T13:20:08;99659.69;;;-0.56;85.21
4167;BME280;2097;51.104;7.150;2022-12-18T13:22:37;99651.19;;;-0.52;84.77
4167;BME280;2097;51.104;7.150;2022-12-18T13:25:34;99666.47;;;-0.52;85.15
4167;BME280;2097;51.104;7.150;2022-12-18T13:28:06;99658.81;;;-0.52;85.23
4167;BME280;2097;51.104;7.150;2022-12-18T13:30:52;99668.16;;;-0.54;84.54
4167;BME280;2097;51.104;7.150;2022-12-18T13:33:49;99669.03;;;-0.56;84.86
4167;BME280;2097;51.104;7.150;2022-12-18T13:36:29;99662.22;;;-0.56;84.98
4167;BME280;2097;51.104;7.150;2022-12-18T13:42:38;99653.72;;;-0.61;85.55